Time;durP1;ratioP1;P1;durP2;ratioP2;P2;SDS_P1;SDS_P2;PMS_P1;PMS_P2;Temp;Humidity;BMP_temperature;BMP_pressure;BME280_temperature;BME280_humidity;BME280_pressure;Samples;Min_cycle;Max_cycle;Signal;HPM_P1;HPM_P2
2023/12/02 00:01:33;;;;;;;13.80;5.70;;;0.60;99.90;;;0.14;nan;100282.25;5246658;28;20044;-47
2023/12/02 00:04:05;;;;;;;15.13;6.07;;;0.60;99.90;;;0.14;nan;100279.69;5253197;28;20102;-47
2023/12/02 00:06:39;;;;;;;14.85;5.80;;;0.60;99.90;;;0.12;nan;100284.69;5251359;28;20050;-48
2023/12/02 00:09:11;;;;;;;12.82;5.75;;;0.60;99.90;;;0.11;nan;100276.91;5244170;28;20056;-48
2023/12/02 00:11:44;;;;;;;15.15;6.63;;;0.60;99.90;;;0.12;nan;100282.13;5259461;28;20388;-47
2023/12/02 00:14:17;;;;;;;13.50;6.20;;;0.60;99.90;;;0.10;nan;100285.38;5260678;28;20047;-47
2023/12/02 00:16:49;;;;;;;14.70;6.07;;;0.60;99.90;;;0.05;nan;100287.63;5253750;28;20101;-47
2023/12/02 00:19:21;;;;;;;14.15;6.13;;;0.60;99.90;;;-0.05;nan;100283.56;5251075;28;20044;-47
2023/12/02 00:21:55;;;;;;;14.07;5.85;;;0.50;99.90;;;-0.08;nan;100279.88;5259867;28;20044;-47
2023/12/02 00:24:28;;;;;;;14.27;5.75;;;0.50;99.90;;;-0.03;nan;100288.78;5260181;28;20055;-47
2023/12/02 00:27:00;;;;;;;14.07;5.95;;;0.50;99.90;;;-0.03;nan;100283.66;5258838;28;20075;-47
2023/12/02 00:29:32;;;;;;;14.48;6.05;;;0.50;99.90;;;0.02;nan;100286.53;5255401;28;20418;-47
2023/12/02 00:32:05;;;;;;;16.00;6.25;;;0.50;99.90;;;0.03;nan;100288.31;5257159;28;20048;-47
2023/12/02 00:34:38;;;;;;;15.68;5.70;;;0.60;99.90;;;0.05;nan;100287.63;5257370;28;20413;-47
2023/12/02 00:37:12;;;;;;;12.15;5.50;;;0.60;99.90;;;0.08;nan;100287.84;5252590;28;20048;-46
2023/12/02 00:39:45;;;;;;;13.95;5.72;;;0.60;99.90;;;0.10;nan;100290.50;5249699;28;20059;-47
2023/12/02 00:42:17;;;;;;;13.73;6.07;;;0.60;99.90;;;0.12;nan;100296.63;5249632;28;20028;-47
2023/12/02 00:44:49;;;;;;;12.68;5.32;;;0.60;99.90;;;0.10;nan;100291.41;5258316;28;20541;-47
2023/12/02 00:47:22;;;;;;;10.73;4.93;;;0.60;99.90;;;0.10;nan;100296.53;5268778;28;20632;-47
2023/12/02 00:49:54;;;;;;;15.70;6.05;;;0.60;99.90;;;0.08;nan;100290.41;5253570;28;20047;-48
2023/12/02 00:52:28;;;;;;;14.15;5.78;;;0.60;99.90;;;0.10;nan;100288.84;5253561;28;20036;-48
2023/12/02 00:55:00;;;;;;;14.93;6.22;;;0.60;99.90;;;0.07;nan;100288.63;5252639;28;20063;-48
2023/12/02 00:57:33;;;;;;;14.98;5.78;;;0.60;99.90;;;0.01;nan;100290.78;5257192;28;20048;-48
2023/12/02 01:00:08;;;;;;;13.48;5.30;;;0.60;99.90;;;-0.01;nan;100292.31;5261249;28;20055;-47
2023/12/02 01:02:40;;;;;;;9.80;5.05;;;0.60;99.90;;;0.03;nan;100294.31;5237561;28;20047;-47
2023/12/02 01:05:33;;;;;;;12.80;5.63;;;0.50;99.90;;;0.04;100.00;100290.97;5214844;27;20408;-47
2023/12/02 01:08:06;;;;;;;11.88;5.63;;;0.50;99.90;;;0.04;100.00;100288.41;5226925;28;20048;-47
2023/12/02 01:10:38;;;;;;;10.90;4.78;;;0.50;99.90;;;0.06;100.00;100293.63;5262063;28;20052;-47
2023/12/02 01:13:10;;;;;;;11.07;4.93;;;0.50;99.90;;;0.05;100.00;100287.63;5279294;28;20044;-47
2023/12/02 01:15:43;;;;;;;13.52;5.43;;;0.50;99.90;;;0.06;100.00;100291.06;5279912;28;20051;-46
2023/12/02 01:18:15;;;;;;;11.90;5.57;;;0.50;99.90;;;0.04;100.00;100288.41;5270052;28;20044;-47
2023/12/02 01:20:49;;;;;;;11.38;4.40;;;0.50;99.90;;;0.06;100.00;100293.63;5271784;28;20088;-48
2023/12/02 01:23:21;;;;;;;13.13;5.68;;;0.50;99.90;;;0.08;100.00;100292.09;5279049;28;20063;-47
2023/12/02 01:25:55;;;;;;;11.10;5.13;;;0.50;99.90;;;0.08;100.00;100305.78;5272248;28;20497;-48
2023/12/02 01:28:27;;;;;;;10.95;4.68;;;0.50;99.90;;;0.09;100.00;100304.13;5270499;28;20051;-47
2023/12/02 01:31:00;;;;;;;13.02;5.30;;;0.60;99.90;;;0.10;100.00;100309.34;5277396;28;20048;-47
2023/12/02 01:33:32;;;;;;;11.57;4.63;;;0.50;99.90;;;0.09;100.00;100310.13;5273093;28;20468;-47
2023/12/02 01:36:10;;;;;;;11.90;4.72;;;0.60;99.90;;;0.09;100.00;100312.69;5272241;28;20072;-48
2023/12/02 01:38:43;;;;;;;10.07;4.95;;;0.60;99.90;;;0.10;100.00;100317.03;5271681;28;20044;-47
2023/12/02 01:41:15;;;;;;;12.57;5.57;;;0.60;99.90;;;0.11;100.00;100312.78;5277299;28;20048;-48
2023/12/02 01:43:48;;;;;;;12.65;5.15;;;0.50;99.90;;;0.06;100.00;100317.59;5279797;28;20563;-47
2023/12/02 01:46:21;;;;;;;11.85;5.20;;;0.50;99.90;;;0.04;100.00;100315.72;5269035;28;20052;-47
2023/12/02 01:48:53;;;;;;;13.30;4.75;;;0.50;99.90;;;0.03;100.00;100311.38;5286266;28;20047;-47
2023/12/02 01:51:28;;;;;;;11.05;5.50;;;0.50;99.90;;;0.00;100.00;100314.63;5284231;28;20075;-48
2023/12/02 01:54:00;;;;;;;13.45;5.15;;;0.50;99.90;;;-0.02;100.00;100311.06;5279570;28;20060;-47
2023/12/02 01:56:32;;;;;;;12.20;4.93;;;0.50;99.90;;;-0.04;100.00;100323.78;5253670;28;20044;-48
2023/12/02 01:59:06;;;;;;;10.10;4.57;;;0.40;99.90;;;-0.05;100.00;100321.09;5278701;28;20039;-47
2023/12/02 02:01:38;;;;;;;11.65;4.55;;;0.40;99.90;;;-0.05;100.00;100323.69;5262554;28;20048;-46
2023/12/02 02:04:10;;;;;;;13.05;5.47;;;0.40;99.90;;;-0.06;100.00;100324.47;5281887;28;20510;-47
2023/12/02 02:06:45;;;;;;;12.60;4.68;;;0.40;99.90;;;-0.04;100.00;100336.59;5280829;28;20043;-46
2023/12/02 02:09:17;;;;;;;11.60;4.80;;;0.40;99.90;;;-0.05;100.00;100328.78;5259304;28;20507;-48
2023/12/02 02:11:50;;;;;;;11.68;5.43;;;0.40;99.90;;;-0.05;100.00;100339.03;5277807;28;20074;-47
2023/12/02 02:14:22;;;;;;;10.65;4.47;;;0.40;99.90;;;-0.05;100.00;100326.22;5276688;28;20046;-48
2023/12/02 02:16:55;;;;;;;16.23;5.13;;;0.40;99.90;;;-0.06;100.00;100334.72;5271962;28;20059;-47
2023/12/02 02:19:27;;;;;;;12.77;5.32;;;0.40;99.90;;;-0.12;100.00;100341.97;5269738;28;20069;-47
2023/12/02 02:22:01;;;;;;;12.15;5.15;;;0.40;99.90;;;-0.15;100.00;100344.31;5264574;28;20585;-47
2023/12/02 02:24:33;;;;;;;12.52;5.65;;;0.40;99.90;;;-0.24;100.00;100342.00;5242618;28;20113;-46
2023/12/02 02:27:06;;;;;;;11.93;5.00;;;0.30;99.90;;;-0.31;100.00;100350.91;5259930;28;20097;-48
2023/12/02 02:29:38;;;;;;;12.27;5.35;;;0.30;99.90;;;-0.36;100.00;100344.56;5264964;28;20048;-47
2023/12/02 02:32:10;;;;;;;13.60;6.13;;;0.30;99.90;;;-0.34;100.00;100343.00;5261514;28;20040;-46
2023/12/02 02:34:43;;;;;;;11.05;5.25;;;0.30;99.90;;;-0.30;100.00;100344.13;5248611;28;20047;-47
2023/12/02 02:37:16;;;;;;;11.30;4.82;;;0.30;99.90;;;-0.27;100.00;100344.31;5254060;28;20052;-47
2023/12/02 02:39:49;;;;;;;12.70;5.70;;;0.30;99.90;;;-0.23;100.00;100345.44;5258362;28;20048;-48
2023/12/02 02:42:21;;;;;;;12.40;5.55;;;0.30;99.90;;;-0.17;100.00;100343.31;5243408;28;20059;-47
2023/12/02 02:44:53;;;;;;;13.20;5.60;;;0.30;99.90;;;-0.16;100.00;100345.97;5258180;28;20426;-47
2023/12/02 02:47:27;;;;;;;12.30;5.05;;;0.40;99.90;;;-0.16;100.00;100338.28;5254813;28;20051;-47
2023/12/02 02:49:59;;;;;;;13.40;5.22;;;0.30;99.90;;;-0.16;100.00;100338.28;5254651;28;20052;-47
2023/12/02 02:52:33;;;;;;;11.45;5.20;;;0.30;99.90;;;-0.13;100.00;100347.84;5248635;28;20048;-47
2023/12/02 02:55:06;;;;;;;16.30;7.00;;;0.30;99.90;;;-0.15;100.00;100344.31;5249247;28;20060;-47
2023/12/02 02:57:38;;;;;;;13.18;5.50;;;0.40;99.90;;;-0.16;100.00;100342.53;5253166;28;20043;-47
2023/12/02 03:00:12;;;;;;;12.00;5.05;;;0.30;99.90;;;-0.14;100.00;100346.06;5253254;28;20059;-47
2023/12/02 03:02:44;;;;;;;12.30;5.70;;;0.30;99.90;;;-0.14;100.00;100346.97;5246906;28;20047;-47
2023/12/02 03:05:17;;;;;;;12.70;5.55;;;0.40;99.90;;;-0.14;100.00;100352.09;5245855;28;20041;-47
2023/12/02 03:07:51;;;;;;;9.40;4.45;;;0.30;99.90;;;-0.12;100.00;100354.78;5264038;28;20087;-47
2023/12/02 03:10:24;;;;;;;11.57;4.78;;;0.40;99.90;;;-0.11;100.00;100361.69;5242895;28;20059;-47
2023/12/02 03:12:56;;;;;;;8.45;3.80;;;0.40;99.90;;;-0.09;100.00;100366.13;5263821;28;20052;-47
2023/12/02 03:15:29;;;;;;;10.55;4.55;;;0.40;99.90;;;-0.07;100.00;100358.53;5237910;28;20051;-47
2023/12/02 03:18:01;;;;;;;9.48;4.40;;;0.40;99.90;;;-0.06;100.00;100360.34;5251264;28;20522;-47
2023/12/02 03:20:34;;;;;;;11.38;4.32;;;0.40;99.90;;;-0.08;100.00;100352.50;5259932;28;20032;-48
2023/12/02 03:23:07;;;;;;;9.70;4.35;;;0.40;99.90;;;-0.08;100.00;100357.63;5254383;28;20048;-47
2023/12/02 03:25:40;;;;;;;8.70;3.80;;;0.40;99.90;;;-0.07;100.00;100348.28;5243853;28;20067;-47
2023/12/02 03:28:13;;;;;;;12.25;4.68;;;0.40;99.90;;;-0.14;100.00;100352.09;5248982;28;20063;-47
2023/12/02 03:30:46;;;;;;;12.55;4.85;;;0.40;99.90;;;-0.16;100.00;100348.53;5258917;28;20044;-47
2023/12/02 03:33:18;;;;;;;12.40;4.75;;;0.40;99.90;;;-0.28;100.00;100346.00;5245558;28;20445;-48
2023/12/02 03:35:51;;;;;;;10.68;5.10;;;0.30;99.90;;;-0.35;100.00;100348.03;5247333;28;20040;-47
2023/12/02 03:38:24;;;;;;;11.23;4.32;;;0.30;99.90;;;-0.31;100.00;100358.59;5249370;28;20414;-47
2023/12/02 03:40:57;;;;;;;11.75;4.55;;;0.30;99.90;;;-0.29;100.00;100354.47;5246779;28;20559;-47
2023/12/02 03:43:29;;;;;;;9.65;4.57;;;0.30;99.90;;;-0.24;100.00;100353.91;5241137;28;20044;-47
2023/12/02 03:46:03;;;;;;;10.50;5.20;;;0.30;99.90;;;-0.23;100.00;100355.69;5247865;28;20612;-48
2023/12/02 03:48:35;;;;;;;10.80;4.63;;;0.30;99.90;;;-0.22;100.00;100352.34;5251285;28;20067;-47
2023/12/02 03:51:08;;;;;;;10.90;4.63;;;0.30;99.90;;;-0.17;100.00;100353.56;5249495;28;20514;-47
2023/12/02 03:53:43;;;;;;;10.15;3.90;;;0.40;99.90;;;-0.12;100.00;100359.91;5234293;28;20060;-47
2023/12/02 03:56:15;;;;;;;10.45;4.55;;;0.40;99.90;;;-0.10;100.00;100363.44;5245811;28;20048;-47
2023/12/02 03:58:48;;;;;;;13.02;4.95;;;0.40;99.90;;;-0.10;100.00;100368.56;5265703;28;20063;-48
2023/12/02 04:01:20;;;;;;;11.25;4.63;;;0.40;99.90;;;-0.16;100.00;100365.59;5262090;28;20056;-47
2023/12/02 04:03:53;;;;;;;11.75;4.68;;;0.40;99.90;;;-0.23;100.00;100371.06;5250458;28;20156;-49
2023/12/02 04:06:25;;;;;;;10.65;4.53;;;0.30;99.90;;;-0.27;100.00;100375.94;5246465;28;20044;-46
2023/12/02 04:08:59;;;;;;;11.57;4.65;;;0.30;99.90;;;-0.31;100.00;100378.22;5257298;28;20090;-49
2023/12/02 04:11:31;;;;;;;9.85;4.40;;;0.30;99.90;;;-0.32;100.00;100377.31;5248065;28;20402;-47
2023/12/02 04:14:04;;;;;;;11.45;4.22;;;0.30;99.90;;;-0.29;100.00;100380.09;5252483;28;20056;-47
2023/12/02 04:16:41;;;;;;;12.15;4.00;;;0.30;99.90;;;-0.34;100.00;100383.97;5233911;28;20048;-47
2023/12/02 04:19:13;;;;;;;11.82;5.25;;;0.30;99.90;;;-0.35;100.00;100401.81;5249057;28;20064;-47
2023/12/02 04:21:47;;;;;;;10.50;4.75;;;0.20;99.90;;;-0.38;100.00;100391.34;5251368;28;20135;-47
2023/12/02 04:24:20;;;;;;;10.82;4.45;;;0.20;99.90;;;-0.38;100.00;100397.38;5259606;28;20045;-47
2023/12/02 04:26:53;;;;;;;9.20;3.78;;;0.20;99.90;;;-0.31;100.00;100402.16;5257804;28;20064;-47
2023/12/02 04:29:25;;;;;;;8.68;4.40;;;0.20;99.90;;;-0.25;100.00;100404.25;5255399;28;20048;-47
2023/12/02 04:31:57;;;;;;;10.00;4.78;;;0.30;99.90;;;-0.23;100.00;100412.03;5240405;28;20387;-48
2023/12/02 04:34:30;;;;;;;11.18;5.18;;;0.30;99.90;;;-0.25;100.00;100408.50;5248234;28;20039;-46
2023/12/02 04:37:03;;;;;;;10.13;4.50;;;0.30;99.90;;;-0.36;100.00;100406.03;5245490;28;20588;-47
2023/12/02 04:39:37;;;;;;;9.73;4.65;;;0.20;99.90;;;-0.35;100.00;100409.50;5242630;28;20044;-47
2023/12/02 04:42:09;;;;;;;10.10;4.65;;;0.20;99.90;;;-0.25;100.00;100413.63;5260574;28;20421;-47
2023/12/02 04:44:42;;;;;;;12.73;4.55;;;0.30;99.90;;;-0.19;100.00;100411.50;5237320;28;20047;-47
2023/12/02 04:47:14;;;;;;;9.23;4.15;;;0.30;99.90;;;-0.16;100.00;100414.25;5260542;28;20125;-47
2023/12/02 04:49:46;;;;;;;9.45;4.22;;;0.30;99.90;;;-0.14;100.00;100411.00;5249278;28;20044;-47
2023/12/02 04:52:19;;;;;;;9.10;3.55;;;0.30;99.90;;;-0.11;100.00;100412.91;5244184;28;20055;-47
2023/12/02 04:54:53;;;;;;;10.73;4.20;;;0.40;99.90;;;-0.10;100.00;100418.16;5249185;28;20044;-47
2023/12/02 04:57:26;;;;;;;9.15;3.90;;;0.40;99.90;;;-0.08;100.00;100420.81;5243664;28;20060;-48
2023/12/02 04:59:58;;;;;;;10.50;4.18;;;0.40;99.90;;;-0.08;100.00;100426.81;5251791;28;20175;-48
2023/12/02 05:02:30;;;;;;;9.35;3.70;;;0.40;99.90;;;-0.05;100.00;100428.72;5250712;28;20056;-47
2023/12/02 05:05:03;;;;;;;8.45;3.58;;;0.40;99.90;;;-0.04;100.00;100431.41;5242552;28;20053;-48
2023/12/02 05:07:35;;;;;;;9.10;3.80;;;0.40;99.90;;;-0.04;100.00;100430.50;5248935;28;20510;-48
2023/12/02 05:10:10;;;;;;;10.32;3.80;;;0.40;99.90;;;-0.02;100.00;100441.75;5253169;28;20526;-48
2023/12/02 05:12:42;;;;;;;8.32;3.83;;;0.40;99.90;;;-0.01;100.00;100431.59;5242205;28;20514;-47
2023/12/02 05:15:14;;;;;;;7.43;3.30;;;0.50;99.90;;;0.01;100.00;100434.28;5245559;28;20055;-47
2023/12/02 05:17:47;;;;;;;8.10;4.05;;;0.50;99.90;;;0.02;100.00;100435.19;5241580;28;20526;-47
2023/12/02 05:20:20;;;;;;;9.13;4.00;;;0.40;99.90;;;0.01;100.00;100434.28;5243966;28;20059;-48
2023/12/02 05:22:52;;;;;;;10.07;4.25;;;0.50;99.90;;;-0.01;100.00;100436.72;5245578;28;20044;-47
2023/12/02 05:25:26;;;;;;;9.30;4.47;;;0.50;99.90;;;-0.01;100.00;100438.41;5227847;28;20071;-48
2023/12/02 05:27:58;;;;;;;9.18;4.68;;;0.40;99.90;;;-0.01;100.00;100438.41;5245352;28;20044;-47
2023/12/02 05:30:33;;;;;;;9.52;4.55;;;0.50;99.90;;;-0.01;100.00;100446.09;5251288;28;20052;-47
2023/12/02 05:33:05;;;;;;;9.75;3.85;;;0.40;99.90;;;0.00;100.00;100442.75;5259059;28;20127;-47
2023/12/02 05:35:38;;;;;;;9.25;3.83;;;0.40;99.90;;;0.02;100.00;100454.00;5251666;28;20039;-48
2023/12/02 05:38:10;;;;;;;10.60;4.30;;;0.50;99.90;;;0.04;100.00;100449.88;5254796;28;20411;-47
2023/12/02 05:40:44;;;;;;;9.50;4.07;;;0.50;99.90;;;0.05;100.00;100448.19;5240029;28;20412;-48
2023/12/02 05:43:16;;;;;;;9.38;4.10;;;0.50;99.90;;;0.06;100.00;100457.66;5239576;28;20418;-48
2023/12/02 05:45:49;;;;;;;8.43;4.00;;;0.50;99.90;;;0.05;100.00;100461.00;5241487;28;20032;-47
2023/12/02 05:48:21;;;;;;;9.73;4.78;;;0.50;99.90;;;0.06;100.00;100462.78;5251231;28;20032;-47
2023/12/02 05:50:53;;;;;;;9.70;4.80;;;0.50;99.90;;;0.04;100.00;100459.22;5243990;28;20047;-47
2023/12/02 05:53:26;;;;;;;9.43;4.30;;;0.50;99.90;;;0.04;100.00;100457.56;5255608;28;20049;-50
2023/12/02 05:55:59;;;;;;;9.93;4.45;;;0.50;99.90;;;0.08;100.00;100459.56;5242106;28;20052;-47
2023/12/02 05:58:32;;;;;;;8.90;4.20;;;0.50;99.90;;;0.11;100.00;100456.31;5258988;28;20058;-48
2023/12/02 06:01:04;;;;;;;7.82;3.83;;;0.50;99.90;;;0.13;100.00;100475.25;5245151;28;20052;-48
2023/12/02 06:03:37;;;;;;;10.32;4.80;;;0.60;99.90;;;0.13;100.00;100465.91;5241932;28;23815;-47
2023/12/02 06:06:11;;;;;;;9.45;4.57;;;0.50;99.90;;;0.12;100.00;100469.22;5244991;28;20045;-47
2023/12/02 06:08:44;;;;;;;8.77;3.90;;;0.50;99.90;;;0.10;100.00;100470.81;5257003;28;20044;-47
2023/12/02 06:11:18;;;;;;;9.63;4.15;;;0.50;99.90;;;0.12;100.00;100469.22;5243929;28;20402;-47
2023/12/02 06:13:50;;;;;;;12.60;5.40;;;0.60;99.90;;;0.12;100.00;100473.47;5243016;28;20045;-47
2023/12/02 06:16:23;;;;;;;11.60;4.53;;;0.60;99.90;;;0.13;100.00;100477.81;5237921;28;20051;-47
2023/12/02 06:18:55;;;;;;;10.00;4.65;;;0.60;99.90;;;0.14;100.00;100477.94;5257487;28;20048;-47
2023/12/02 06:21:27;;;;;;;14.10;5.18;;;0.60;99.90;;;0.16;100.00;100480.59;5259399;28;20052;-48
2023/12/02 06:24:00;;;;;;;13.18;5.60;;;0.60;99.90;;;0.15;100.00;100483.97;5262734;28;20461;-47
2023/12/02 06:26:33;;;;;;;13.75;5.15;;;0.60;99.90;;;0.11;100.00;100485.41;5244524;28;20047;-46
2023/12/02 06:29:06;;;;;;;12.38;5.43;;;0.60;99.90;;;0.12;100.00;100489.75;5239527;28;20052;-47
2023/12/02 06:31:39;;;;;;;10.25;4.18;;;0.60;99.90;;;0.12;100.00;100484.63;5241799;28;20465;-48
2023/12/02 06:34:11;;;;;;;9.23;3.80;;;0.60;99.90;;;0.10;100.00;100493.00;5263331;28;20055;-47
2023/12/02 06:36:44;;;;;;;8.75;3.47;;;0.60;99.90;;;0.12;100.00;100496.53;5248494;28;20121;-48
2023/12/02 06:39:16;;;;;;;7.78;3.55;;;0.50;99.90;;;0.12;100.00;100500.00;5251406;28;20063;-48
2023/12/02 06:41:50;;;;;;;9.38;4.38;;;0.60;99.90;;;0.11;100.00;100503.34;5263107;28;20459;-47
2023/12/02 06:44:23;;;;;;;9.50;3.95;;;0.60;99.90;;;0.14;100.00;100502.69;5246100;28;20060;-48
2023/12/02 06:46:55;;;;;;;9.35;3.95;;;0.60;99.90;;;0.14;100.00;100508.72;5264420;28;20210;-47
2023/12/02 06:49:27;;;;;;;9.68;3.53;;;0.60;99.90;;;0.17;100.00;100506.34;5254480;28;20064;-48
2023/12/02 06:52:00;;;;;;;7.90;3.50;;;0.60;99.90;;;0.20;100.00;100504.00;5244728;28;20052;-47
2023/12/02 06:54:37;;;;;;;10.43;4.55;;;0.70;99.90;;;0.22;100.00;100511.81;5251845;28;20384;-47
2023/12/02 06:57:11;;;;;;;10.70;4.35;;;0.70;99.90;;;0.22;100.00;100517.81;5251142;28;20068;-47
2023/12/02 06:59:45;;;;;;;11.00;3.92;;;0.70;99.90;;;0.22;100.00;100512.69;5260884;28;20041;-47
2023/12/02 07:02:18;;;;;;;8.88;4.25;;;0.70;99.90;;;0.23;100.00;100524.72;5245797;28;20097;-47
2023/12/02 07:04:50;;;;;;;11.52;4.30;;;0.70;99.90;;;0.25;100.00;100524.81;5255688;28;20048;-47
2023/12/02 07:07:22;;;;;;;11.30;4.70;;;0.70;99.90;;;0.25;100.00;100527.38;5242388;28;20056;-48
2023/12/02 07:09:54;;;;;;;10.30;4.57;;;0.70;99.90;;;0.28;100.00;100531.88;5255656;28;20060;-48
2023/12/02 07:12:28;;;;;;;9.98;3.95;;;0.70;99.90;;;0.29;100.00;100538.78;5261528;28;20048;-48
2023/12/02 07:15:00;;;;;;;9.77;4.00;;;0.70;99.90;;;0.31;100.00;100543.22;5240659;28;20399;-47
2023/12/02 07:17:33;;;;;;;11.68;4.53;;;0.70;99.90;;;0.30;100.00;100553.38;5263527;28;20057;-47
2023/12/02 07:20:07;;;;;;;7.70;3.55;;;0.70;99.90;;;0.31;100.00;100553.47;5246317;28;20045;-47
2023/12/02 07:22:40;;;;;;;9.70;4.30;;;0.70;99.90;;;0.32;100.00;100562.94;5249882;28;20078;-47
2023/12/02 07:25:12;;;;;;;12.80;4.95;;;0.70;99.90;;;0.33;100.00;100566.41;5262996;28;20048;-48
2023/12/02 07:27:46;;;;;;;10.02;4.55;;;0.70;99.90;;;0.36;100.00;100564.06;5258968;28;20064;-47
2023/12/02 07:30:18;;;;;;;10.52;4.57;;;0.80;99.90;;;0.36;100.00;100567.50;5263051;28;20047;-48
2023/12/02 07:32:51;;;;;;;11.55;4.82;;;0.80;99.90;;;0.36;100.00;100571.75;5262709;28;20047;-48
2023/12/02 07:35:23;;;;;;;9.82;4.13;;;0.80;99.90;;;0.37;100.00;100568.41;5245192;28;20058;-48
2023/12/02 07:37:55;;;;;;;10.48;4.43;;;0.80;99.90;;;0.37;100.00;100565.84;5242135;28;20039;-48
2023/12/02 07:40:28;;;;;;;9.70;4.35;;;0.80;99.90;;;0.37;100.00;100576.09;5257691;28;20073;-48
2023/12/02 07:43:01;;;;;;;11.30;4.47;;;0.80;99.90;;;0.36;100.00;100571.75;5263052;28;20049;-47
2023/12/02 07:45:34;;;;;;;9.00;4.18;;;0.80;99.90;;;0.37;100.00;100578.66;5246549;28;20048;-47
2023/12/02 07:48:07;;;;;;;10.73;5.00;;;0.80;99.90;;;0.35;100.00;100585.38;5260334;28;20503;-48
2023/12/02 07:50:40;;;;;;;11.63;4.82;;;0.80;99.90;;;0.37;100.00;100594.03;5254936;28;20051;-47
2023/12/02 07:53:12;;;;;;;12.43;5.53;;;0.80;99.90;;;0.37;100.00;100589.81;5246060;28;20056;-47
2023/12/02 07:55:44;;;;;;;12.88;5.30;;;0.80;99.90;;;0.39;100.00;100602.72;5259925;28;20067;-48
2023/12/02 07:58:18;;;;;;;13.55;5.78;;;0.80;99.90;;;0.38;100.00;100603.50;5256507;28;20051;-48
2023/12/02 08:00:50;;;;;;;13.68;6.20;;;0.80;99.90;;;0.35;100.00;100606.75;5255322;28;20411;-48
2023/12/02 08:03:23;;;;;;;13.27;5.68;;;0.80;99.90;;;0.32;100.00;100615.91;5244825;28;20056;-47
2023/12/02 08:05:55;;;;;;;11.70;5.50;;;0.80;99.90;;;0.32;100.00;100605.63;5261810;28;20043;-47
2023/12/02 08:08:28;;;;;;;13.45;5.53;;;0.80;99.90;;;0.34;100.00;100616.91;5259135;28;20055;-47
2023/12/02 08:11:00;;;;;;;12.00;5.28;;;0.80;99.90;;;0.34;100.00;100614.34;5240979;28;20431;-47
2023/12/02 08:13:34;;;;;;;13.43;5.38;;;0.80;99.90;;;0.31;100.00;100624.38;5253629;28;20062;-48
2023/12/02 08:16:07;;;;;;;14.05;5.88;;;0.70;99.90;;;0.30;100.00;100625.16;5258864;28;20040;-48
2023/12/02 08:18:39;;;;;;;12.38;4.63;;;0.70;99.90;;;0.30;100.00;100627.72;5257966;28;20074;-48
2023/12/02 08:21:13;;;;;;;12.13;4.95;;;0.70;99.90;;;0.32;100.00;100641.53;5254248;28;20060;-48
2023/12/02 08:23:45;;;;;;;13.88;5.90;;;0.70;99.90;;;0.33;100.00;100643.34;5255013;28;20052;-49
2023/12/02 08:26:17;;;;;;;14.43;5.18;;;0.70;99.90;;;0.32;100.00;100641.53;5260974;28;20410;-48
2023/12/02 08:28:51;;;;;;;15.63;5.68;;;0.80;99.90;;;0.31;100.00;100644.88;5261737;28;20126;-47
2023/12/02 08:31:24;;;;;;;12.82;5.57;;;0.70;99.90;;;0.31;100.00;100650.91;5244160;28;20052;-48
2023/12/02 08:33:56;;;;;;;13.77;5.60;;;0.80;99.90;;;0.31;100.00;100653.47;5260732;28;20039;-47
2023/12/02 08:36:28;;;;;;;14.35;5.93;;;0.70;99.90;;;0.33;100.00;100648.47;5258576;28;20040;-48
2023/12/02 08:39:02;;;;;;;13.77;5.18;;;0.80;99.90;;;0.36;100.00;100656.38;5256758;28;20450;-47
2023/12/02 08:41:36;;;;;;;13.38;4.68;;;0.80;99.90;;;0.40;100.00;100648.13;5254568;28;20447;-49
2023/12/02 08:44:10;;;;;;;12.05;5.32;;;0.80;99.90;;;0.41;100.00;100658.50;5256680;28;20135;-47
2023/12/02 08:46:42;;;;;;;16.25;6.10;;;0.80;99.90;;;0.45;100.00;100664.72;5261557;28;20059;-48
2023/12/02 08:49:14;;;;;;;15.38;5.97;;;0.80;99.90;;;0.46;100.00;100669.09;5253762;28;20115;-48
2023/12/02 08:51:47;;;;;;;11.48;5.05;;;0.90;99.90;;;0.47;100.00;100673.44;5254210;28;20049;-47
2023/12/02 08:54:19;;;;;;;12.25;5.55;;;0.90;99.90;;;0.49;100.00;100671.88;5257212;28;20055;-47
2023/12/02 08:56:51;;;;;;;11.50;4.22;;;0.90;99.90;;;0.50;100.00;100671.97;5250820;28;20514;-48
2023/12/02 08:59:25;;;;;;;11.07;4.85;;;0.90;99.90;;;0.53;100.00;100676.47;5245694;28;20067;-47
2023/12/02 09:01:58;;;;;;;11.98;5.63;;;0.90;99.90;;;0.55;100.00;100682.59;5253363;28;20054;-48
2023/12/02 09:04:30;;;;;;;12.95;5.60;;;1.00;99.90;;;0.58;100.00;100681.91;5258613;28;20560;-47
2023/12/02 09:07:03;;;;;;;13.43;4.57;;;1.00;99.90;;;0.61;100.00;100682.13;5257892;28;20040;-47
2023/12/02 09:09:36;;;;;;;12.93;5.53;;;1.00;99.90;;;0.64;100.00;100688.38;5240427;28;20052;-48
2023/12/02 09:12:09;;;;;;;12.00;4.85;;;1.00;99.90;;;0.69;100.00;100689.59;5255950;28;20048;-47
2023/12/02 09:14:43;;;;;;;13.65;5.10;;;1.10;99.90;;;0.69;100.00;100687.03;5243028;28;20044;-47
2023/12/02 09:18:14;;;;;;;11.68;5.10;;;1.10;99.90;;;0.70;100.00;100691.38;5261171;28;20035;-47
2023/12/02 09:20:49;;;;;;;15.32;5.70;;;1.10;99.90;;;0.70;100.00;100695.63;5167963;28;20053;-48
2023/12/02 09:23:21;;;;;;;13.90;4.97;;;1.10;99.90;;;0.69;100.00;100694.72;5241050;28;20049;-48
2023/12/02 09:25:54;;;;;;;11.73;4.68;;;1.10;99.90;;;0.69;100.00;100697.28;5259982;28;20047;-45
2023/12/02 09:28:27;;;;;;;11.20;5.05;;;1.10;99.90;;;0.75;100.00;100697.72;5259070;28;20048;-45
2023/12/02 09:31:03;;;;;;;10.95;5.40;;;1.10;99.90;;;0.85;100.00;100706.09;5260611;28;20040;-45
2023/12/02 09:33:35;;;;;;;11.85;5.00;;;1.20;99.90;;;1.02;100.00;100700.50;5258308;28;20055;-48
2023/12/02 09:36:09;;;;;;;9.65;4.38;;;1.40;99.90;;;-1.26;100.00;100176.91;5249050;28;20052;-48
2023/12/02 09:38:41;;;;;;;13.57;5.38;;;2.00;99.90;;;1.89;100.00;100704.88;5258232;28;20051;-48
2023/12/02 09:41:33;;;;;;;12.95;4.95;;;2.20;99.90;;;1.74;100.00;100708.97;5247106;28;20036;-50
2023/12/02 09:44:24;;;;;;;10.00;4.35;;;2.20;99.90;;;1.55;100.00;100717.09;5259647;28;20044;-49
2023/12/02 09:47:07;;;;;;;9.85;4.38;;;2.10;99.90;;;1.36;100.00;100712.34;5248822;28;20056;-49
2023/12/02 09:50:09;;;;;;;11.90;5.07;;;1.90;99.90;;;1.28;100.00;100715.16;5244557;28;20047;-48
2023/12/02 09:52:53;;;;;;;11.57;5.15;;;1.80;99.90;;;1.20;100.00;100719.75;5248305;28;20051;-48
2023/12/02 09:55:33;;;;;;;11.27;4.70;;;1.70;99.90;;;1.16;100.00;100720.31;5254108;28;20056;-48
2023/12/02 09:58:22;;;;;;;13.00;5.57;;;1.60;99.90;;;1.14;100.00;100719.34;5244506;28;20098;-48
2023/12/02 10:01:01;;;;;;;11.00;4.57;;;1.60;99.90;;;1.11;100.00;100716.56;5255966;28;20102;-48
2023/12/02 10:04:10;;;;;;;11.90;4.78;;;1.50;99.90;;;1.08;100.00;100719.78;5252826;28;20055;-48
2023/12/02 10:06:51;;;;;;;14.02;5.15;;;1.50;99.90;;;1.08;100.00;100718.91;5177966;28;20045;-49
2023/12/02 10:09:44;;;;;;;10.18;4.18;;;1.50;99.90;;;1.09;100.00;100720.69;5231907;28;20146;-48
2023/12/02 10:12:36;;;;;;;12.30;5.70;;;1.50;99.90;;;1.05;100.00;100724.72;5253643;28;20147;-48
2023/12/02 10:15:12;;;;;;;13.35;4.78;;;1.50;99.90;;;1.00;100.00;100714.91;5244084;28;20047;-48
2023/12/02 10:17:51;;;;;;;11.63;4.63;;;1.40;99.90;;;0.96;100.00;100723.16;5254971;28;20045;-49
2023/12/02 10:20:29;;;;;;;13.15;5.57;;;1.40;99.90;;;0.95;99.83;100717.13;5264469;28;20590;-49
2023/12/02 10:23:16;;;;;;;12.35;4.63;;;1.40;99.90;;;0.98;99.91;100717.38;5262407;28;20051;-49
2023/12/02 10:26:00;;;;;;;11.80;4.70;;;1.40;99.90;;;1.02;100.00;100713.31;5253893;28;20511;-49
2023/12/02 10:28:48;;;;;;;9.55;4.45;;;1.40;99.90;;;1.06;100.00;100720.47;5260062;28;20063;-50
2023/12/02 10:31:27;;;;;;;10.00;4.18;;;1.50;99.90;;;1.11;99.79;100708.88;5243117;28;20565;-48
2023/12/02 10:34:13;;;;;;;13.57;5.40;;;1.50;99.90;;;1.16;99.87;100715.19;5261407;28;20059;-48
2023/12/02 10:36:49;;;;;;;11.20;4.80;;;1.50;99.90;;;1.25;100.00;100718.44;5257739;28;20050;-49
2023/12/02 10:39:31;;;;;;;11.77;4.45;;;1.60;99.90;;;1.32;99.97;100715.50;5261338;28;20139;-48
2023/12/02 10:42:04;;;;;;;13.07;5.07;;;1.60;99.90;;;1.35;99.58;100714.81;5237114;28;20048;-49